sensor_id;sensor_type;location;lat;lon;timestamp;P1;durP1;ratioP1;P2;durP2;ratioP2
5475;SDS011;2760;50.000;9.194;2023-05-07T00:01:32;3.97;;;3.23;;
5475;SDS011;2760;50.000;9.194;2023-05-07T00:03:59;5.90;;;3.40;;
5475;SDS011;2760;50.000;9.194;2023-05-07T00:06:27;3.73;;;3.33;;
5475;SDS011;2760;50.000;9.194;2023-05-07T00:08:56;3.63;;;3.33;;
5475;SDS011;2760;50.000;9.194;2023-05-07T00:11:24;10.10;;;3.53;;
5475;SDS011;2760;50.000;9.194;2023-05-07T00:13:52;5.13;;;3.40;;
5475;SDS011;2760;50.000;9.194;2023-05-07T00:16:19;3.50;;;3.20;;
5475;SDS011;2760;50.000;9.194;2023-05-07T00:18:46;6.63;;;3.43;;
5475;SDS011;2760;50.000;9.194;2023-05-07T00:21:14;4.37;;;3.20;;
5475;SDS011;2760;50.000;9.194;2023-05-07T00:23:41;3.60;;;3.30;;
5475;SDS011;2760;50.000;9.194;2023-05-07T00:26:09;5.63;;;3.27;;
5475;SDS011;2760;50.000;9.194;2023-05-07T00:28:38;4.87;;;3.73;;
5475;SDS011;2760;50.000;9.194;2023-05-07T00:31:06;4.47;;;3.80;;
5475;SDS011;2760;50.000;9.194;2023-05-07T00:33:33;5.00;;;4.10;;
5475;SDS011;2760;50.000;9.194;2023-05-07T00:36:00;5.37;;;3.80;;
5475;SDS011;2760;50.000;9.194;2023-05-07T00:38:28;5.53;;;3.70;;
5475;SDS011;2760;50.000;9.194;2023-05-07T00:40:55;9.73;;;3.77;;
5475;SDS011;2760;50.000;9.194;2023-05-07T00:43:23;3.50;;;3.30;;
5475;SDS011;2760;50.000;9.194;2023-05-07T00:45:50;9.10;;;3.73;;
5475;SDS011;2760;50.000;9.194;2023-05-07T00:48:18;5.20;;;3.40;;
5475;SDS011;2760;50.000;9.194;2023-05-07T00:50:45;3.33;;;3.07;;
5475;SDS011;2760;50.000;9.194;2023-05-07T00:53:15;6.80;;;3.60;;
5475;SDS011;2760;50.000;9.194;2023-05-07T00:55:42;3.17;;;2.97;;
5475;SDS011;2760;50.000;9.194;2023-05-07T00:58:10;4.40;;;2.90;;
5475;SDS011;2760;50.000;9.194;2023-05-07T01:00:39;4.03;;;2.87;;
5475;SDS011;2760;50.000;9.194;2023-05-07T01:03:07;3.33;;;2.27;;
5475;SDS011;2760;50.000;9.194;2023-05-07T01:05:35;3.33;;;3.03;;
5475;SDS011;2760;50.000;9.194;2023-05-07T01:08:02;2.60;;;2.40;;
5475;SDS011;2760;50.000;9.194;2023-05-07T01:10:30;3.00;;;2.70;;
5475;SDS011;2760;50.000;9.194;2023-05-07T01:12:58;3.40;;;2.87;;
5475;SDS011;2760;50.000;9.194;2023-05-07T01:15:26;2.43;;;2.23;;
5475;SDS011;2760;50.000;9.194;2023-05-07T01:17:55;3.30;;;3.00;;
5475;SDS011;2760;50.000;9.194;2023-05-07T01:20:29;4.33;;;2.80;;
5475;SDS011;2760;50.000;9.194;2023-05-07T01:23:00;2.30;;;2.10;;
5475;SDS011;2760;50.000;9.194;2023-05-07T01:25:28;3.20;;;2.83;;
5475;SDS011;2760;50.000;9.194;2023-05-07T01:28:00;6.13;;;2.57;;
5475;SDS011;2760;50.000;9.194;2023-05-07T01:30:31;4.33;;;2.83;;
5475;SDS011;2760;50.000;9.194;2023-05-07T01:33:04;3.40;;;2.93;;
5475;SDS011;2760;50.000;9.194;2023-05-07T01:35:37;2.90;;;2.70;;
5475;SDS011;2760;50.000;9.194;2023-05-07T01:38:09;2.27;;;2.13;;
5475;SDS011;2760;50.000;9.194;2023-05-07T01:40:37;2.93;;;2.10;;
5475;SDS011;2760;50.000;9.194;2023-05-07T01:43:05;3.50;;;2.70;;
5475;SDS011;2760;50.000;9.194;2023-05-07T01:45:34;2.60;;;2.40;;
5475;SDS011;2760;50.000;9.194;2023-05-07T01:48:02;4.73;;;2.83;;
5475;SDS011;2760;50.000;9.194;2023-05-07T01:50:31;2.50;;;2.33;;
5475;SDS011;2760;50.000;9.194;2023-05-07T01:52:58;3.37;;;2.73;;
5475;SDS011;2760;50.000;9.194;2023-05-07T01:55:27;3.33;;;2.67;;
5475;SDS011;2760;50.000;9.194;2023-05-07T01:57:54;2.70;;;2.47;;
5475;SDS011;2760;50.000;9.194;2023-05-07T02:00:21;3.40;;;2.80;;
5475;SDS011;2760;50.000;9.194;2023-05-07T02:02:49;3.17;;;2.50;;
5475;SDS011;2760;50.000;9.194;2023-05-07T02:05:32;2.50;;;2.20;;
5475;SDS011;2760;50.000;9.194;2023-05-07T02:08:05;2.60;;;2.40;;
5475;SDS011;2760;50.000;9.194;2023-05-07T02:10:35;3.93;;;2.73;;
5475;SDS011;2760;50.000;9.194;2023-05-07T02:13:04;2.60;;;2.40;;
5475;SDS011;2760;50.000;9.194;2023-05-07T02:15:31;7.70;;;2.77;;
5475;SDS011;2760;50.000;9.194;2023-05-07T02:18:02;2.97;;;2.77;;
5475;SDS011;2760;50.000;9.194;2023-05-07T02:20:31;2.80;;;2.60;;
5475;SDS011;2760;50.000;9.194;2023-05-07T02:22:58;2.83;;;2.63;;
5475;SDS011;2760;50.000;9.194;2023-05-07T02:25:28;2.50;;;2.30;;
5475;SDS011;2760;50.000;9.194;2023-05-07T02:27:57;2.13;;;2.03;;
5475;SDS011;2760;50.000;9.194;2023-05-07T02:30:38;2.50;;;2.30;;
5475;SDS011;2760;50.000;9.194;2023-05-07T02:33:06;3.30;;;2.07;;
5475;SDS011;2760;50.000;9.194;2023-05-07T02:35:34;3.93;;;2.47;;
5475;SDS011;2760;50.000;9.194;2023-05-07T02:38:00;2.47;;;2.27;;
5475;SDS011;2760;50.000;9.194;2023-05-07T02:40:28;3.30;;;2.40;;
5475;SDS011;2760;50.000;9.194;2023-05-07T02:43:00;4.33;;;2.40;;
5475;SDS011;2760;50.000;9.194;2023-05-07T02:45:27;3.53;;;2.40;;
5475;SDS011;2760;50.000;9.194;2023-05-07T02:47:54;2.77;;;2.50;;
5475;SDS011;2760;50.000;9.194;2023-05-07T02:50:23;2.63;;;2.43;;
5475;SDS011;2760;50.000;9.194;2023-05-07T02:52:53;3.03;;;2.30;;
5475;SDS011;2760;50.000;9.194;2023-05-07T02:55:20;5.50;;;2.73;;
5475;SDS011;2760;50.000;9.194;2023-05-07T02:57:47;2.83;;;2.30;;
5475;SDS011;2760;50.000;9.194;2023-05-07T03:00:16;4.33;;;2.20;;
5475;SDS011;2760;50.000;9.194;2023-05-07T03:03:01;3.00;;;2.70;;
5475;SDS011;2760;50.000;9.194;2023-05-07T03:05:28;3.60;;;2.47;;
5475;SDS011;2760;50.000;9.194;2023-05-07T03:07:55;7.00;;;2.87;;
5475;SDS011;2760;50.000;9.194;2023-05-07T03:10:22;3.20;;;2.90;;
5475;SDS011;2760;50.000;9.194;2023-05-07T03:12:50;2.93;;;2.13;;
5475;SDS011;2760;50.000;9.194;2023-05-07T03:15:18;3.47;;;2.97;;
5475;SDS011;2760;50.000;9.194;2023-05-07T03:17:46;2.53;;;2.33;;
5475;SDS011;2760;50.000;9.194;2023-05-07T03:20:13;11.63;;;2.53;;
5475;SDS011;2760;50.000;9.194;2023-05-07T03:22:41;4.83;;;2.50;;
5475;SDS011;2760;50.000;9.194;2023-05-07T03:25:08;3.10;;;2.90;;
5475;SDS011;2760;50.000;9.194;2023-05-07T03:27:36;6.00;;;3.00;;
5475;SDS011;2760;50.000;9.194;2023-05-07T03:30:04;3.50;;;2.53;;
5475;SDS011;2760;50.000;9.194;2023-05-07T03:32:34;2.87;;;2.60;;
5475;SDS011;2760;50.000;9.194;2023-05-07T03:35:05;2.90;;;2.70;;
5475;SDS011;2760;50.000;9.194;2023-05-07T03:37:33;5.10;;;3.10;;
5475;SDS011;2760;50.000;9.194;2023-05-07T03:40:00;3.93;;;2.53;;
5475;SDS011;2760;50.000;9.194;2023-05-07T03:42:31;3.63;;;2.90;;
5475;SDS011;2760;50.000;9.194;2023-05-07T03:44:58;3.20;;;2.90;;
5475;SDS011;2760;50.000;9.194;2023-05-07T03:47:25;4.37;;;2.77;;
5475;SDS011;2760;50.000;9.194;2023-05-07T03:49:55;4.43;;;2.90;;
5475;SDS011;2760;50.000;9.194;2023-05-07T03:52:23;3.63;;;3.33;;
5475;SDS011;2760;50.000;9.194;2023-05-07T03:54:53;5.00;;;2.80;;
5475;SDS011;2760;50.000;9.194;2023-05-07T03:57:20;3.20;;;3.00;;
5475;SDS011;2760;50.000;9.194;2023-05-07T03:59:47;3.40;;;2.90;;
5475;SDS011;2760;50.000;9.194;2023-05-07T04:02:14;5.57;;;3.27;;
5475;SDS011;2760;50.000;9.194;2023-05-07T04:04:42;9.33;;;3.47;;
5475;SDS011;2760;50.000;9.194;2023-05-07T04:07:16;3.53;;;3.23;;
5475;SDS011;2760;50.000;9.194;2023-05-07T04:09:48;5.30;;;2.93;;
5475;SDS011;2760;50.000;9.194;2023-05-07T04:12:15;4.97;;;3.70;;
5475;SDS011;2760;50.000;9.194;2023-05-07T04:14:42;4.73;;;3.33;;
5475;SDS011;2760;50.000;9.194;2023-05-07T04:17:09;4.07;;;3.57;;
5475;SDS011;2760;50.000;9.194;2023-05-07T04:19:37;4.10;;;3.70;;
5475;SDS011;2760;50.000;9.194;2023-05-07T04:22:05;3.30;;;2.67;;
5475;SDS011;2760;50.000;9.194;2023-05-07T04:24:36;6.30;;;3.60;;
5475;SDS011;2760;50.000;9.194;2023-05-07T04:27:04;4.23;;;3.57;;
5475;SDS011;2760;50.000;9.194;2023-05-07T04:29:31;3.20;;;2.90;;
5475;SDS011;2760;50.000;9.194;2023-05-07T04:31:58;4.00;;;3.60;;
5475;SDS011;2760;50.000;9.194;2023-05-07T04:34:26;7.80;;;3.40;;
5475;SDS011;2760;50.000;9.194;2023-05-07T04:36:53;4.07;;;3.77;;
5475;SDS011;2760;50.000;9.194;2023-05-07T04:39:20;3.40;;;3.20;;
5475;SDS011;2760;50.000;9.194;2023-05-07T04:41:49;4.83;;;3.37;;
5475;SDS011;2760;50.000;9.194;2023-05-07T04:44:17;6.47;;;3.63;;
5475;SDS011;2760;50.000;9.194;2023-05-07T04:46:44;4.17;;;3.50;;
5475;SDS011;2760;50.000;9.194;2023-05-07T04:49:11;7.13;;;4.50;;
5475;SDS011;2760;50.000;9.194;2023-05-07T04:51:38;3.87;;;3.40;;
5475;SDS011;2760;50.000;9.194;2023-05-07T04:54:08;4.87;;;4.10;;
5475;SDS011;2760;50.000;9.194;2023-05-07T04:56:35;7.60;;;3.90;;
5475;SDS011;2760;50.000;9.194;2023-05-07T04:59:04;5.03;;;4.23;;
5475;SDS011;2760;50.000;9.194;2023-05-07T05:01:31;4.77;;;3.63;;
5475;SDS011;2760;50.000;9.194;2023-05-07T05:03:58;4.23;;;3.93;;
5475;SDS011;2760;50.000;9.194;2023-05-07T05:06:26;4.43;;;4.07;;
5475;SDS011;2760;50.000;9.194;2023-05-07T05:08:53;4.60;;;3.93;;
5475;SDS011;2760;50.000;9.194;2023-05-07T05:11:21;5.07;;;4.57;;
5475;SDS011;2760;50.000;9.194;2023-05-07T05:13:49;4.40;;;4.00;;
5475;SDS011;2760;50.000;9.194;2023-05-07T05:16:20;4.50;;;4.10;;
5475;SDS011;2760;50.000;9.194;2023-05-07T05:18:47;5.40;;;4.90;;
5475;SDS011;2760;50.000;9.194;2023-05-07T05:21:18;4.83;;;4.43;;
5475;SDS011;2760;50.000;9.194;2023-05-07T05:23:47;5.23;;;4.37;;
5475;SDS011;2760;50.000;9.194;2023-05-07T05:26:18;4.67;;;4.23;;
5475;SDS011;2760;50.000;9.194;2023-05-07T05:28:46;5.30;;;4.80;;
5475;SDS011;2760;50.000;9.194;2023-05-07T05:31:15;4.40;;;3.97;;
5475;SDS011;2760;50.000;9.194;2023-05-07T05:33:43;5.90;;;5.00;;
5475;SDS011;2760;50.000;9.194;2023-05-07T05:36:10;5.53;;;4.97;;
5475;SDS011;2760;50.000;9.194;2023-05-07T05:38:38;20.17;;;4.83;;
5475;SDS011;2760;50.000;9.194;2023-05-07T05:41:06;4.77;;;4.37;;
5475;SDS011;2760;50.000;9.194;2023-05-07T05:43:34;6.10;;;5.50;;
5475;SDS011;2760;50.000;9.194;2023-05-07T05:46:01;5.23;;;4.77;;
5475;SDS011;2760;50.000;9.194;2023-05-07T05:48:29;6.20;;;5.30;;
5475;SDS011;2760;50.000;9.194;2023-05-07T05:51:01;6.57;;;5.17;;
5475;SDS011;2760;50.000;9.194;2023-05-07T05:53:28;5.03;;;4.60;;
5475;SDS011;2760;50.000;9.194;2023-05-07T05:55:55;11.43;;;5.27;;
5475;SDS011;2760;50.000;9.194;2023-05-07T05:58:22;5.60;;;5.10;;
5475;SDS011;2760;50.000;9.194;2023-05-07T06:00:54;5.33;;;4.63;;
5475;SDS011;2760;50.000;9.194;2023-05-07T06:03:24;5.57;;;5.07;;
5475;SDS011;2760;50.000;9.194;2023-05-07T06:05:52;9.57;;;5.03;;
5475;SDS011;2760;50.000;9.194;2023-05-07T06:08:22;5.90;;;5.30;;
5475;SDS011;2760;50.000;9.194;2023-05-07T06:10:49;6.20;;;5.33;;
5475;SDS011;2760;50.000;9.194;2023-05-07T06:13:17;6.47;;;5.20;;
5475;SDS011;2760;50.000;9.194;2023-05-07T06:15:44;6.90;;;5.20;;
5475;SDS011;2760;50.000;9.194;2023-05-07T06:18:14;8.93;;;5.63;;
5475;SDS011;2760;50.000;9.194;2023-05-07T06:20:40;7.83;;;6.13;;
5475;SDS011;2760;50.000;9.194;2023-05-07T06:23:14;8.27;;;5.83;;
5475;SDS011;2760;50.000;9.194;2023-05-07T06:25:42;6.77;;;5.90;;
5475;SDS011;2760;50.000;9.194;2023-05-07T06:28:15;6.23;;;5.63;;
5475;SDS011;2760;50.000;9.194;2023-05-07T06:30:42;8.20;;;5.63;;
5475;SDS011;2760;50.000;9.194;2023-05-07T06:33:10;6.40;;;5.50;;
5475;SDS011;2760;50.000;9.194;2023-05-07T06:35:37;7.87;;;5.70;;
5475;SDS011;2760;50.000;9.194;2023-05-07T06:38:05;9.37;;;6.20;;
5475;SDS011;2760;50.000;9.194;2023-05-07T06:40:32;7.77;;;5.53;;
5475;SDS011;2760;50.000;9.194;2023-05-07T06:43:01;7.40;;;6.17;;
5475;SDS011;2760;50.000;9.194;2023-05-07T06:45:35;6.63;;;6.00;;
5475;SDS011;2760;50.000;9.194;2023-05-07T06:48:04;10.03;;;6.40;;
5475;SDS011;2760;50.000;9.194;2023-05-07T06:50:37;6.60;;;6.00;;
5475;SDS011;2760;50.000;9.194;2023-05-07T06:53:04;6.90;;;5.40;;
5475;SDS011;2760;50.000;9.194;2023-05-07T06:55:31;6.13;;;5.63;;
5475;SDS011;2760;50.000;9.194;2023-05-07T06:58:00;6.07;;;5.47;;
5475;SDS011;2760;50.000;9.194;2023-05-07T07:00:27;10.53;;;6.13;;
5475;SDS011;2760;50.000;9.194;2023-05-07T07:02:56;6.47;;;5.87;;
5475;SDS011;2760;50.000;9.194;2023-05-07T07:05:26;6.70;;;6.10;;
5475;SDS011;2760;50.000;9.194;2023-05-07T07:07:54;6.80;;;6.10;;
5475;SDS011;2760;50.000;9.194;2023-05-07T07:10:21;6.20;;;5.70;;
5475;SDS011;2760;50.000;9.194;2023-05-07T07:12:50;8.57;;;5.90;;
5475;SDS011;2760;50.000;9.194;2023-05-07T07:15:20;6.27;;;5.67;;
5475;SDS011;2760;50.000;9.194;2023-05-07T07:17:48;17.70;;;11.00;;
5475;SDS011;2760;50.000;9.194;2023-05-07T07:20:15;6.67;;;6.07;;
5475;SDS011;2760;50.000;9.194;2023-05-07T07:22:43;6.17;;;5.57;;
5475;SDS011;2760;50.000;9.194;2023-05-07T07:25:11;8.87;;;6.47;;
5475;SDS011;2760;50.000;9.194;2023-05-07T07:27:38;6.43;;;5.83;;
5475;SDS011;2760;50.000;9.194;2023-05-07T07:30:07;6.57;;;5.97;;
5475;SDS011;2760;50.000;9.194;2023-05-07T07:32:38;7.30;;;6.57;;
5475;SDS011;2760;50.000;9.194;2023-05-07T07:35:05;6.20;;;5.60;;
5475;SDS011;2760;50.000;9.194;2023-05-07T07:37:34;7.20;;;6.50;;
5475;SDS011;2760;50.000;9.194;2023-05-07T07:40:01;6.50;;;5.87;;
5475;SDS011;2760;50.000;9.194;2023-05-07T07:42:29;6.00;;;5.17;;
5475;SDS011;2760;50.000;9.194;2023-05-07T07:44:56;7.40;;;6.20;;
5475;SDS011;2760;50.000;9.194;2023-05-07T07:47:27;7.10;;;6.40;;
5475;SDS011;2760;50.000;9.194;2023-05-07T07:49:55;7.53;;;6.77;;
5475;SDS011;2760;50.000;9.194;2023-05-07T07:52:24;7.53;;;6.60;;
5475;SDS011;2760;50.000;9.194;2023-05-07T07:54:51;7.93;;;7.03;;
5475;SDS011;2760;50.000;9.194;2023-05-07T07:57:21;7.10;;;6.40;;
5475;SDS011;2760;50.000;9.194;2023-05-07T07:59:48;6.77;;;5.43;;
5475;SDS011;2760;50.000;9.194;2023-05-07T08:05:03;6.50;;;5.90;;
5475;SDS011;2760;50.000;9.194;2023-05-07T08:07:30;7.90;;;7.20;;
5475;SDS011;2760;50.000;9.194;2023-05-07T08:09:59;9.40;;;6.37;;
5475;SDS011;2760;50.000;9.194;2023-05-07T08:12:27;8.10;;;6.17;;
5475;SDS011;2760;50.000;9.194;2023-05-07T08:14:54;7.17;;;6.47;;
5475;SDS011;2760;50.000;9.194;2023-05-07T08:17:21;9.57;;;6.70;;
5475;SDS011;2760;50.000;9.194;2023-05-07T08:19:49;6.67;;;5.40;;
5475;SDS011;2760;50.000;9.194;2023-05-07T08:22:18;6.70;;;6.10;;
5475;SDS011;2760;50.000;9.194;2023-05-07T08:24:45;8.70;;;7.20;;
5475;SDS011;2760;50.000;9.194;2023-05-07T08:27:12;6.63;;;6.03;;
5475;SDS011;2760;50.000;9.194;2023-05-07T08:29:41;6.97;;;6.10;;
5475;SDS011;2760;50.000;9.194;2023-05-07T08:32:12;6.93;;;6.23;;
5475;SDS011;2760;50.000;9.194;2023-05-07T08:34:40;7.07;;;6.10;;
5475;SDS011;2760;50.000;9.194;2023-05-07T08:37:07;8.23;;;7.00;;
5475;SDS011;2760;50.000;9.194;2023-05-07T08:39:36;6.80;;;6.10;;
5475;SDS011;2760;50.000;9.194;2023-05-07T08:42:07;7.30;;;6.17;;
5475;SDS011;2760;50.000;9.194;2023-05-07T08:44:37;10.43;;;6.30;;
5475;SDS011;2760;50.000;9.194;2023-05-07T08:47:06;7.33;;;6.63;;
5475;SDS011;2760;50.000;9.194;2023-05-07T08:49:36;7.43;;;6.57;;
5475;SDS011;2760;50.000;9.194;2023-05-07T08:52:05;10.70;;;7.50;;
5475;SDS011;2760;50.000;9.194;2023-05-07T08:54:32;7.17;;;6.27;;
5475;SDS011;2760;50.000;9.194;2023-05-07T08:57:05;8.30;;;7.10;;
5475;SDS011;2760;50.000;9.194;2023-05-07T08:59:34;7.60;;;6.90;;
5475;SDS011;2760;50.000;9.194;2023-05-07T09:02:02;8.60;;;6.17;;
5475;SDS011;2760;50.000;9.194;2023-05-07T09:04:29;7.30;;;6.60;;
5475;SDS011;2760;50.000;9.194;2023-05-07T09:06:57;8.07;;;6.80;;
5475;SDS011;2760;50.000;9.194;2023-05-07T09:09:32;7.40;;;6.63;;
5475;SDS011;2760;50.000;9.194;2023-05-07T09:12:02;7.70;;;6.33;;
5475;SDS011;2760;50.000;9.194;2023-05-07T09:14:33;6.80;;;6.20;;
5475;SDS011;2760;50.000;9.194;2023-05-07T09:17:01;7.30;;;6.10;;
5475;SDS011;2760;50.000;9.194;2023-05-07T09:19:29;10.17;;;6.80;;
5475;SDS011;2760;50.000;9.194;2023-05-07T09:22:00;6.43;;;5.90;;
5475;SDS011;2760;50.000;9.194;2023-05-07T09:24:35;8.47;;;6.47;;
5475;SDS011;2760;50.000;9.194;2023-05-07T09:27:06;9.13;;;7.13;;
5475;SDS011;2760;50.000;9.194;2023-05-07T09:29:37;7.13;;;6.43;;
5475;SDS011;2760;50.000;9.194;2023-05-07T09:32:07;7.30;;;6.60;;
5475;SDS011;2760;50.000;9.194;2023-05-07T09:34:35;7.90;;;6.43;;
5475;SDS011;2760;50.000;9.194;2023-05-07T09:37:02;6.83;;;6.17;;
5475;SDS011;2760;50.000;9.194;2023-05-07T09:39:38;7.03;;;5.73;;
5475;SDS011;2760;50.000;9.194;2023-05-07T09:42:08;10.70;;;6.67;;
5475;SDS011;2760;50.000;9.194;2023-05-07T09:44:37;6.83;;;6.10;;
5475;SDS011;2760;50.000;9.194;2023-05-07T09:47:10;9.03;;;6.60;;
5475;SDS011;2760;50.000;9.194;2023-05-07T09:49:43;7.50;;;6.70;;
5475;SDS011;2760;50.000;9.194;2023-05-07T09:52:20;6.80;;;6.17;;
5475;SDS011;2760;50.000;9.194;2023-05-07T09:55:01;6.53;;;5.33;;
5475;SDS011;2760;50.000;9.194;2023-05-07T09:57:32;9.50;;;6.10;;
5475;SDS011;2760;50.000;9.194;2023-05-07T10:00:08;6.30;;;5.70;;
5475;SDS011;2760;50.000;9.194;2023-05-07T10:02:58;8.00;;;7.20;;
5475;SDS011;2760;50.000;9.194;2023-05-07T10:05:36;8.93;;;6.57;;
5475;SDS011;2760;50.000;9.194;2023-05-07T10:08:04;6.87;;;5.40;;
5475;SDS011;2760;50.000;9.194;2023-05-07T10:10:39;7.60;;;4.97;;
5475;SDS011;2760;50.000;9.194;2023-05-07T10:13:12;8.63;;;5.23;;
5475;SDS011;2760;50.000;9.194;2023-05-07T10:15:46;7.40;;;5.70;;
5475;SDS011;2760;50.000;9.194;2023-05-07T10:18:14;5.90;;;5.30;;
5475;SDS011;2760;50.000;9.194;2023-05-07T10:20:46;5.60;;;4.97;;
5475;SDS011;2760;50.000;9.194;2023-05-07T10:23:14;5.50;;;5.00;;
5475;SDS011;2760;50.000;9.194;2023-05-07T10:25:58;5.73;;;5.07;;
5475;SDS011;2760;50.000;9.194;2023-05-07T10:28:32;6.03;;;5.23;;
5475;SDS011;2760;50.000;9.194;2023-05-07T10:31:15;6.20;;;5.30;;
5475;SDS011;2760;50.000;9.194;2023-05-07T10:33:53;5.13;;;4.60;;
5475;SDS011;2760;50.000;9.194;2023-05-07T10:36:23;4.90;;;4.00;;
5475;SDS011;2760;50.000;9.194;2023-05-07T10:39:32;4.80;;;4.50;;
5475;SDS011;2760;50.000;9.194;2023-05-07T10:42:07;7.53;;;4.73;;
5475;SDS011;2760;50.000;9.194;2023-05-07T10:44:36;4.80;;;4.30;;
5475;SDS011;2760;50.000;9.194;2023-05-07T10:56:26;4.77;;;4.10;;
5475;SDS011;2760;50.000;9.194;2023-05-07T10:59:29;4.43;;;3.73;;
5475;SDS011;2760;50.000;9.194;2023-05-07T11:02:16;4.30;;;4.00;;
5475;SDS011;2760;50.000;9.194;2023-05-07T11:07:53;4.90;;;4.43;;
5475;SDS011;2760;50.000;9.194;2023-05-07T11:10:22;7.47;;;4.47;;
5475;SDS011;2760;50.000;9.194;2023-05-07T11:12:59;4.20;;;3.80;;
5475;SDS011;2760;50.000;9.194;2023-05-07T11:15:36;4.23;;;3.77;;
5475;SDS011;2760;50.000;9.194;2023-05-07T11:18:19;3.80;;;3.50;;
5475;SDS011;2760;50.000;9.194;2023-05-07T11:20:52;4.73;;;3.30;;
5475;SDS011;2760;50.000;9.194;2023-05-07T11:26:50;3.80;;;3.50;;
5475;SDS011;2760;50.000;9.194;2023-05-07T11:29:20;3.47;;;3.17;;
5475;SDS011;2760;50.000;9.194;2023-05-07T11:31:51;3.30;;;3.10;;
5475;SDS011;2760;50.000;9.194;2023-05-07T11:34:22;7.40;;;3.60;;
5475;SDS011;2760;50.000;9.194;2023-05-07T11:36:52;3.47;;;3.13;;
5475;SDS011;2760;50.000;9.194;2023-05-07T11:39:27;12.10;;;3.17;;
5475;SDS011;2760;50.000;9.194;2023-05-07T11:41:55;5.57;;;3.60;;
5475;SDS011;2760;50.000;9.194;2023-05-07T11:44:22;4.37;;;3.20;;
5475;SDS011;2760;50.000;9.194;2023-05-07T11:46:49;3.43;;;2.90;;
5475;SDS011;2760;50.000;9.194;2023-05-07T11:49:16;4.10;;;2.70;;
5475;SDS011;2760;50.000;9.194;2023-05-07T11:51:45;3.40;;;3.00;;
5475;SDS011;2760;50.000;9.194;2023-05-07T11:54:15;2.40;;;2.20;;
5475;SDS011;2760;50.000;9.194;2023-05-07T11:56:43;3.43;;;2.63;;
5475;SDS011;2760;50.000;9.194;2023-05-07T11:59:11;3.47;;;2.73;;
5475;SDS011;2760;50.000;9.194;2023-05-07T12:01:40;2.90;;;2.70;;
5475;SDS011;2760;50.000;9.194;2023-05-07T12:04:11;2.33;;;2.13;;
5475;SDS011;2760;50.000;9.194;2023-05-07T12:06:38;3.63;;;2.40;;
5475;SDS011;2760;50.000;9.194;2023-05-07T12:09:06;3.13;;;2.23;;
5475;SDS011;2760;50.000;9.194;2023-05-07T12:11:36;2.97;;;2.60;;
5475;SDS011;2760;50.000;9.194;2023-05-07T12:14:04;4.50;;;2.63;;
5475;SDS011;2760;50.000;9.194;2023-05-07T12:16:32;2.83;;;2.60;;
5475;SDS011;2760;50.000;9.194;2023-05-07T12:18:59;2.70;;;2.50;;
5475;SDS011;2760;50.000;9.194;2023-05-07T12:21:27;3.47;;;3.17;;
5475;SDS011;2760;50.000;9.194;2023-05-07T12:23:54;2.70;;;2.50;;
5475;SDS011;2760;50.000;9.194;2023-05-07T12:26:22;2.73;;;2.53;;
5475;SDS011;2760;50.000;9.194;2023-05-07T12:28:50;6.63;;;2.33;;
5475;SDS011;2760;50.000;9.194;2023-05-07T12:31:17;2.47;;;2.27;;
5475;SDS011;2760;50.000;9.194;2023-05-07T12:33:45;3.50;;;2.60;;
5475;SDS011;2760;50.000;9.194;2023-05-07T12:36:12;3.00;;;2.60;;
5475;SDS011;2760;50.000;9.194;2023-05-07T12:38:39;3.33;;;3.03;;
5475;SDS011;2760;50.000;9.194;2023-05-07T12:41:07;6.70;;;2.77;;
5475;SDS011;2760;50.000;9.194;2023-05-07T12:43:36;2.23;;;1.90;;
5475;SDS011;2760;50.000;9.194;2023-05-07T12:46:04;2.40;;;2.10;;
5475;SDS011;2760;50.000;9.194;2023-05-07T12:48:32;6.50;;;1.90;;
5475;SDS011;2760;50.000;9.194;2023-05-07T12:51:00;2.60;;;2.27;;
5475;SDS011;2760;50.000;9.194;2023-05-07T12:53:28;3.50;;;2.60;;
5475;SDS011;2760;50.000;9.194;2023-05-07T12:55:56;2.60;;;2.40;;
5475;SDS011;2760;50.000;9.194;2023-05-07T12:58:26;3.17;;;2.20;;
5475;SDS011;2760;50.000;9.194;2023-05-07T13:00:56;5.80;;;3.50;;
5475;SDS011;2760;50.000;9.194;2023-05-07T13:03:25;2.90;;;2.63;;
5475;SDS011;2760;50.000;9.194;2023-05-07T13:05:54;3.53;;;3.23;;
5475;SDS011;2760;50.000;9.194;2023-05-07T13:08:25;7.53;;;3.80;;
5475;SDS011;2760;50.000;9.194;2023-05-07T13:10:53;3.67;;;2.77;;
5475;SDS011;2760;50.000;9.194;2023-05-07T13:13:20;4.13;;;3.30;;
5475;SDS011;2760;50.000;9.194;2023-05-07T13:15:47;3.67;;;3.37;;
5475;SDS011;2760;50.000;9.194;2023-05-07T13:18:16;3.30;;;3.00;;
5475;SDS011;2760;50.000;9.194;2023-05-07T13:20:43;3.80;;;3.33;;
5475;SDS011;2760;50.000;9.194;2023-05-07T13:23:10;4.03;;;3.63;;
5475;SDS011;2760;50.000;9.194;2023-05-07T13:25:37;3.17;;;2.97;;
5475;SDS011;2760;50.000;9.194;2023-05-07T13:28:04;4.20;;;3.27;;
5475;SDS011;2760;50.000;9.194;2023-05-07T13:30:31;3.10;;;2.80;;
5475;SDS011;2760;50.000;9.194;2023-05-07T13:32:59;4.17;;;2.87;;
5475;SDS011;2760;50.000;9.194;2023-05-07T13:35:27;3.97;;;2.87;;
5475;SDS011;2760;50.000;9.194;2023-05-07T13:37:54;3.37;;;3.00;;
5475;SDS011;2760;50.000;9.194;2023-05-07T13:40:22;2.73;;;2.53;;
5475;SDS011;2760;50.000;9.194;2023-05-07T13:42:49;5.50;;;3.13;;
5475;SDS011;2760;50.000;9.194;2023-05-07T13:45:16;6.13;;;2.80;;
5475;SDS011;2760;50.000;9.194;2023-05-07T13:47:44;4.40;;;2.67;;
5475;SDS011;2760;50.000;9.194;2023-05-07T13:50:11;3.93;;;2.90;;
5475;SDS011;2760;50.000;9.194;2023-05-07T13:52:42;4.53;;;3.10;;
5475;SDS011;2760;50.000;9.194;2023-05-07T13:55:15;7.07;;;3.43;;
5475;SDS011;2760;50.000;9.194;2023-05-07T13:57:42;3.73;;;3.30;;
5475;SDS011;2760;50.000;9.194;2023-05-07T14:00:10;4.23;;;3.27;;
5475;SDS011;2760;50.000;9.194;2023-05-07T14:02:40;4.13;;;2.93;;
5475;SDS011;2760;50.000;9.194;2023-05-07T14:05:08;6.47;;;2.97;;
5475;SDS011;2760;50.000;9.194;2023-05-07T14:07:35;3.67;;;3.30;;
5475;SDS011;2760;50.000;9.194;2023-05-07T14:10:04;4.10;;;2.53;;
5475;SDS011;2760;50.000;9.194;2023-05-07T14:12:32;3.23;;;2.43;;
5475;SDS011;2760;50.000;9.194;2023-05-07T14:14:59;3.33;;;3.10;;
5475;SDS011;2760;50.000;9.194;2023-05-07T14:17:26;3.00;;;2.80;;
5475;SDS011;2760;50.000;9.194;2023-05-07T14:19:54;3.30;;;3.00;;
5475;SDS011;2760;50.000;9.194;2023-05-07T14:22:21;2.67;;;2.47;;
5475;SDS011;2760;50.000;9.194;2023-05-07T14:24:48;2.60;;;2.40;;
5475;SDS011;2760;50.000;9.194;2023-05-07T14:27:19;5.23;;;2.37;;
5475;SDS011;2760;50.000;9.194;2023-05-07T14:29:46;3.70;;;2.77;;
5475;SDS011;2760;50.000;9.194;2023-05-07T14:32:16;3.83;;;2.70;;
5475;SDS011;2760;50.000;9.194;2023-05-07T14:34:43;2.90;;;2.70;;
5475;SDS011;2760;50.000;9.194;2023-05-07T14:37:10;2.60;;;2.40;;
5475;SDS011;2760;50.000;9.194;2023-05-07T14:39:37;2.77;;;2.57;;
5475;SDS011;2760;50.000;9.194;2023-05-07T14:42:04;3.80;;;3.33;;
5475;SDS011;2760;50.000;9.194;2023-05-07T14:44:34;5.47;;;2.97;;
5475;SDS011;2760;50.000;9.194;2023-05-07T14:47:01;3.43;;;3.13;;
5475;SDS011;2760;50.000;9.194;2023-05-07T14:49:28;4.23;;;2.80;;
5475;SDS011;2760;50.000;9.194;2023-05-07T14:51:56;4.20;;;2.73;;
5475;SDS011;2760;50.000;9.194;2023-05-07T14:54:24;3.20;;;3.00;;
5475;SDS011;2760;50.000;9.194;2023-05-07T14:56:51;3.20;;;3.00;;
5475;SDS011;2760;50.000;9.194;2023-05-07T14:59:18;4.77;;;4.33;;
5475;SDS011;2760;50.000;9.194;2023-05-07T15:01:47;3.50;;;3.20;;
5475;SDS011;2760;50.000;9.194;2023-05-07T15:04:14;4.20;;;3.80;;
5475;SDS011;2760;50.000;9.194;2023-05-07T15:06:42;4.67;;;3.90;;
5475;SDS011;2760;50.000;9.194;2023-05-07T15:09:09;4.00;;;3.50;;
5475;SDS011;2760;50.000;9.194;2023-05-07T15:11:35;3.20;;;2.93;;
5475;SDS011;2760;50.000;9.194;2023-05-07T15:14:03;3.63;;;3.33;;
5475;SDS011;2760;50.000;9.194;2023-05-07T15:16:30;4.33;;;3.40;;
5475;SDS011;2760;50.000;9.194;2023-05-07T15:18:59;4.10;;;3.23;;
5475;SDS011;2760;50.000;9.194;2023-05-07T15:21:26;4.53;;;4.03;;
5475;SDS011;2760;50.000;9.194;2023-05-07T15:23:53;5.17;;;3.90;;
5475;SDS011;2760;50.000;9.194;2023-05-07T15:26:20;5.80;;;5.17;;
5475;SDS011;2760;50.000;9.194;2023-05-07T15:28:47;5.83;;;4.03;;
5475;SDS011;2760;50.000;9.194;2023-05-07T15:31:15;3.60;;;3.03;;
5475;SDS011;2760;50.000;9.194;2023-05-07T15:33:43;5.00;;;3.43;;
5475;SDS011;2760;50.000;9.194;2023-05-07T15:36:12;4.03;;;3.73;;
5475;SDS011;2760;50.000;9.194;2023-05-07T15:38:39;6.93;;;4.63;;
5475;SDS011;2760;50.000;9.194;2023-05-07T15:41:06;3.60;;;3.30;;
5475;SDS011;2760;50.000;9.194;2023-05-07T15:43:43;5.43;;;3.80;;
5475;SDS011;2760;50.000;9.194;2023-05-07T15:46:12;4.10;;;3.73;;